This is the latest recevied weather packets stored in our database for station/object IU1DOF-3. If no packets are shown the sender has not sent any weather packets the latest 10 day(s).
| Time | Temp. | Humidity | Pressure | Rain* | Wind** | Luminosity | Snow |
|---|---|---|---|---|---|---|---|
| 1777915981 | 10.56° C | 97% | 1015.2 hPa | 0 mm | - | - | - |
| 1777915361 | 10.56° C | 96% | 1015.2 hPa | 1.02 mm | - | - | - |
| 1777914749 | 10.56° C | 96% | 1015.1 hPa | 1.78 mm | - | - | - |
| 1777914125 | 10.56° C | 94% | 1015.2 hPa | 1.02 mm | - | - | - |
| 1777913516 | 11.11° C | 92% | 1015.2 hPa | 1.78 mm | - | - | - |
| 1777912901 | 11.11° C | 91% | 1015.4 hPa | 0 mm | - | - | - |
| 1777912285 | 12.22° C | 86% | 1015.3 hPa | 0 mm | - | - | - |
| 1777911661 | 12.22° C | 82% | 1015.3 hPa | 0 mm | - | - | - |
| 1777911052 | 12.78° C | 78% | 1015.2 hPa | 0 mm | - | - | - |
| 1777910441 | 12.78° C | 77% | 1015 hPa | 0 mm | - | - | - |
| 1777909821 | 12.78° C | 77% | 1015 hPa | 0 mm | - | - | - |
| 1777909196 | 12.78° C | 76% | 1014.9 hPa | 0 mm | - | - | - |
| 1777908581 | 13.33° C | 75% | 1014.9 hPa | 0 mm | - | - | - |
| 1777907964 | 13.33° C | 73% | 1015.2 hPa | 0 mm | - | - | - |
| 1777907341 | 13.33° C | 74% | 1015.1 hPa | 0 mm | - | - | - |
| 1777906721 | 13.33° C | 75% | 1015.2 hPa | 0 mm | - | - | - |
| 1777906109 | 13.89° C | 74% | 1015 hPa | 0 mm | - | - | - |
| 1777905485 | 14.44° C | 72% | 1015.2 hPa | 0 mm | - | - | - |
| 1777904861 | 16.11° C | 68% | 1014.9 hPa | 0 mm | - | - | - |
| 1777904237 | 15.56° C | 68% | 1015.1 hPa | 0 mm | - | - | - |
| 1777903613 | 16.11° C | 63% | 1015.2 hPa | 0 mm | - | - | - |
| 1777903001 | 15.56° C | 67% | 1015.2 hPa | 0 mm | - | - | - |
| 1777902381 | 17.22° C | 63% | 1015.5 hPa | 0 mm | - | - | - |
| 1777901757 | 16.67° C | 68% | 1015.2 hPa | 0 mm | - | - | - |
| 1777901141 | 15.56° C | 67% | 1015.6 hPa | 0 mm | - | - | - |
* Rain latest hour (hover to see other rain measurements)
** Current wind speed in m/s (hover to see current wind gust speed)